Current Conditions
Mostly Scattered
Clouds



Rainfall
0.00 (mm) - 0.00 (in)
Pressure
1010.92 (mb) - 29.85 (inHG)
Visibility

6.2 (mimiles) - 10.0 (km)
   Temperature
7  °C
45°F
6  °C
Dewpoint
93  %
 Humidity
   Wind Speed
13  mph
11  kts
21  km/h
5.8  m/s
   Wind Direction
 140°
South East
   Airport Data
EGGD
Location Bristol International 15 mi (24.14 km)
Metar :EGGD 200150Z AUTO 14011KT 9999 SCT010 SCT043 07/06 Q1011
Wed 20th November 02:50 am
   Raw Metar Info
Raw METAR is the most common format in the world for the transmission of observational weather data. It is highly standardized through the International Civil Aviation Organization (ICAO), which allows it to be understood throughout most of the world.
   API Info
Data Provided by
https://www.checkwx.com/weather/EGGD
   © Info
CSS/SVG/PHP scripts were developed by weather34.com for use in the weather34 template © 2015-2019

Guide Info provided by Metar-Wikipedia